createdAt,value
2022-11-19T00:01:32.611Z,17.03
2022-11-19T00:04:00.332Z,17.15
2022-11-19T00:06:28.705Z,17.15
2022-11-19T00:08:56.233Z,16.97
2022-11-19T00:11:45.055Z,16.84
2022-11-19T00:14:15.485Z,16.95
2022-11-19T00:16:47.777Z,17.00
2022-11-19T00:19:15.210Z,16.96
2022-11-19T00:21:42.521Z,16.95
2022-11-19T00:28:09.790Z,16.84
2022-11-19T00:30:52.424Z,16.83
2022-11-19T00:33:19.869Z,16.83
2022-11-19T00:35:47.309Z,16.93
2022-11-19T00:38:17.042Z,16.96
2022-11-19T00:40:44.579Z,16.96
2022-11-19T00:43:30.298Z,16.80
2022-11-19T00:45:57.759Z,16.89
2022-11-19T00:48:25.164Z,16.79
2022-11-19T00:50:52.513Z,16.82
2022-11-19T00:53:21.423Z,16.82
2022-11-19T00:55:51.705Z,16.77
2022-11-19T00:58:19.756Z,16.78
2022-11-19T01:00:47.919Z,16.61
2022-11-19T01:03:15.350Z,16.78
2022-11-19T01:05:42.779Z,16.74
2022-11-19T01:08:10.205Z,16.69
2022-11-19T01:10:37.506Z,16.66
2022-11-19T01:13:23.338Z,16.64
2022-11-19T01:15:51.669Z,16.55
2022-11-19T01:18:19.829Z,16.47
2022-11-19T01:20:47.222Z,16.38
2022-11-19T01:23:14.845Z,16.35
2022-11-19T01:25:42.428Z,16.23
2022-11-19T01:28:09.783Z,16.28
2022-11-19T01:30:40.757Z,16.28
2022-11-19T01:33:08.693Z,16.24
2022-11-19T01:35:36.979Z,16.23
2022-11-19T01:38:07.160Z,16.20
2022-11-19T01:40:43.073Z,16.11
2022-11-19T01:43:12.455Z,16.14
2022-11-19T01:45:43.930Z,16.14
2022-11-19T01:48:27.867Z,15.95
2022-11-19T01:50:59.472Z,16.01
2022-11-19T01:53:33.794Z,16.03
2022-11-19T01:56:04.450Z,16.04
2022-11-19T01:58:37.265Z,16.02
2022-11-19T02:01:06.261Z,16.00
2022-11-19T02:03:36.698Z,15.96
2022-11-19T02:06:04.748Z,15.89
2022-11-19T02:08:50.939Z,15.93
2022-11-19T02:11:52.018Z,15.93
2022-11-19T02:14:28.107Z,15.93
2022-11-19T02:17:28.008Z,15.91
2022-11-19T02:20:14.190Z,15.95
2022-11-19T02:23:06.217Z,16.01
2022-11-19T02:25:39.732Z,16.06
2022-11-19T02:28:22.310Z,16.07
2022-11-19T02:31:19.015Z,16.03
2022-11-19T02:34:05.051Z,16.07
2022-11-19T02:36:39.063Z,16.05
2022-11-19T02:39:35.973Z,16.04
2022-11-19T02:42:18.192Z,15.98
2022-11-19T02:45:00.430Z,15.90
2022-11-19T02:47:47.321Z,15.87
2022-11-19T02:50:55.468Z,15.81
2022-11-19T02:53:24.008Z,15.76
2022-11-19T02:56:10.232Z,15.70
2022-11-19T02:59:12.884Z,15.78
2022-11-19T03:02:04.651Z,15.82
2022-11-19T03:04:33.045Z,15.75
2022-11-19T03:07:03.665Z,15.81
2022-11-19T03:09:33.482Z,15.79
2022-11-19T03:12:20.702Z,15.81
2022-11-19T03:15:15.537Z,15.75
2022-11-19T03:18:08.331Z,15.73
2022-11-19T03:20:48.899Z,15.69
2022-11-19T03:23:23.902Z,15.72
2022-11-19T03:26:01.202Z,15.77
2022-11-19T03:28:34.532Z,15.90
2022-11-19T03:31:03.591Z,15.74
2022-11-19T03:33:35.584Z,15.86
2022-11-19T03:36:10.896Z,15.74
2022-11-19T03:38:44.671Z,15.72
2022-11-19T03:41:15.713Z,15.74
2022-11-19T03:43:46.198Z,15.67
2022-11-19T03:46:17.914Z,15.73
2022-11-19T03:48:50.477Z,15.65
2022-11-19T03:51:38.929Z,15.56
2022-11-19T03:54:06.364Z,15.57
2022-11-19T03:56:37.052Z,15.54
2022-11-19T03:59:08.263Z,15.64
2022-11-19T04:01:37.083Z,15.63
2022-11-19T04:04:24.509Z,15.53
2022-11-19T04:06:51.867Z,15.42
2022-11-19T04:09:19.367Z,15.41
2022-11-19T04:14:12.831Z,15.30
2022-11-19T04:16:40.300Z,15.37
2022-11-19T04:19:07.799Z,15.38
2022-11-19T04:21:35.146Z,15.46
2022-11-19T04:24:03.063Z,15.49
2022-11-19T04:26:30.587Z,15.48
2022-11-19T04:29:00.349Z,15.45
2022-11-19T04:31:27.888Z,15.37
2022-11-19T04:33:55.226Z,15.36
2022-11-19T04:36:23.015Z,15.29
2022-11-19T04:38:50.428Z,15.22
2022-11-19T04:41:17.748Z,15.07
2022-11-19T04:43:45.046Z,14.85
2022-11-19T04:46:12.388Z,14.86
2022-11-19T04:48:39.782Z,14.85
2022-11-19T04:51:07.281Z,14.93
2022-11-19T04:53:34.962Z,15.00
2022-11-19T04:56:02.520Z,14.94
2022-11-19T04:58:29.996Z,14.89
2022-11-19T05:00:57.469Z,14.83
2022-11-19T05:03:24.891Z,14.73
2022-11-19T05:05:52.458Z,14.76
2022-11-19T05:08:19.901Z,14.87
2022-11-19T05:10:47.293Z,14.83
2022-11-19T05:13:14.722Z,14.84
2022-11-19T05:15:42.068Z,14.90
2022-11-19T05:18:09.436Z,14.90
2022-11-19T05:20:36.751Z,14.88
2022-11-19T05:23:05.211Z,14.86
2022-11-19T05:25:32.689Z,14.88
2022-11-19T05:28:03.649Z,14.89
2022-11-19T05:30:31.062Z,14.85
2022-11-19T05:32:58.437Z,14.85
2022-11-19T05:35:25.950Z,14.79
2022-11-19T05:37:53.420Z,14.82
2022-11-19T05:40:20.811Z,14.81
2022-11-19T05:42:48.259Z,14.81
2022-11-19T05:45:16.439Z,14.81
2022-11-19T05:47:48.450Z,14.91
2022-11-19T05:50:16.813Z,14.98
2022-11-19T05:52:44.098Z,15.01
2022-11-19T05:55:11.466Z,15.03
2022-11-19T05:57:38.860Z,15.09
2022-11-19T06:00:06.700Z,15.07
2022-11-19T06:02:40.105Z,15.11
2022-11-19T06:05:09.270Z,15.22
2022-11-19T06:07:36.656Z,15.08
2022-11-19T06:10:04.820Z,15.10
2022-11-19T06:12:32.491Z,15.06
2022-11-19T06:15:02.206Z,15.13
2022-11-19T06:17:30.000Z,15.07
2022-11-19T06:19:57.578Z,15.05
2022-11-19T06:22:25.204Z,15.08
2022-11-19T06:24:52.606Z,15.11
2022-11-19T06:27:20.021Z,15.10
2022-11-19T06:29:49.256Z,15.14
2022-11-19T06:32:19.637Z,15.14
2022-11-19T06:34:47.001Z,15.23
2022-11-19T06:37:14.525Z,15.28
2022-11-19T06:39:41.971Z,15.35
2022-11-19T06:42:27.699Z,15.40
2022-11-19T06:44:55.145Z,15.38
2022-11-19T06:47:22.738Z,15.43
2022-11-19T06:49:50.347Z,15.51
2022-11-19T06:52:17.689Z,15.54
2022-11-19T06:54:45.586Z,15.64
2022-11-19T06:57:13.106Z,15.65
2022-11-19T06:59:40.575Z,15.68
2022-11-19T07:02:10.267Z,15.71
2022-11-19T07:04:37.759Z,15.76
2022-11-19T07:07:06.117Z,15.83
2022-11-19T07:09:33.581Z,15.95
2022-11-19T07:12:01.248Z,16.00
2022-11-19T07:14:31.897Z,16.08
2022-11-19T07:16:59.906Z,16.20
2022-11-19T07:19:30.011Z,16.11
2022-11-19T07:22:08.951Z,15.94
2022-11-19T07:24:36.441Z,16.27
2022-11-19T07:27:04.817Z,16.31
2022-11-19T07:29:32.299Z,16.38
2022-11-19T07:32:05.228Z,16.40
2022-11-19T07:34:34.901Z,16.42
2022-11-19T07:37:02.768Z,16.43
2022-11-19T07:39:30.120Z,16.46
2022-11-19T07:42:15.674Z,16.48
2022-11-19T07:44:45.036Z,16.53
2022-11-19T07:47:12.451Z,16.58
2022-11-19T07:49:39.946Z,16.60
2022-11-19T07:52:07.416Z,16.69
2022-11-19T07:54:35.051Z,16.73
2022-11-19T07:57:03.028Z,16.74
2022-11-19T07:59:30.876Z,16.77
2022-11-19T08:01:58.214Z,16.82
2022-11-19T08:04:28.958Z,16.87
2022-11-19T08:06:56.816Z,16.93
2022-11-19T08:09:31.836Z,17.02
2022-11-19T08:11:59.316Z,17.12
2022-11-19T08:14:29.248Z,17.24
2022-11-19T08:17:15.214Z,17.30
2022-11-19T08:19:47.880Z,17.65
2022-11-19T08:22:15.661Z,17.95
2022-11-19T08:24:44.046Z,17.82
2022-11-19T08:27:11.587Z,18.06
2022-11-19T08:29:44.288Z,18.24
2022-11-19T08:32:11.922Z,18.42
2022-11-19T08:34:39.389Z,18.54
2022-11-19T08:37:07.207Z,18.67
2022-11-19T08:39:34.675Z,18.27
2022-11-19T08:42:20.335Z,18.27
2022-11-19T08:44:47.896Z,18.28
2022-11-19T08:47:15.281Z,18.28
2022-11-19T08:49:42.883Z,18.44
2022-11-19T08:52:10.423Z,18.40
2022-11-19T08:54:37.719Z,18.42
2022-11-19T08:57:05.104Z,18.26
2022-11-19T08:59:32.526Z,18.18
2022-11-19T09:01:59.882Z,18.11
2022-11-19T09:04:27.409Z,18.27
2022-11-19T09:06:54.949Z,18.36
2022-11-19T09:09:22.576Z,18.38
2022-11-19T09:11:49.976Z,18.20
2022-11-19T09:14:17.728Z,18.26
2022-11-19T09:16:45.494Z,18.42
2022-11-19T09:19:12.905Z,18.48
2022-11-19T09:21:40.251Z,18.62
2022-11-19T09:24:08.037Z,18.56
2022-11-19T09:26:35.716Z,18.64
2022-11-19T09:29:03.044Z,18.51
2022-11-19T09:31:30.679Z,18.76
2022-11-19T09:33:58.144Z,18.93
2022-11-19T09:36:25.644Z,18.80
2022-11-19T09:38:57.751Z,18.89
2022-11-19T09:41:37.389Z,18.77
2022-11-19T09:44:30.241Z,18.68
2022-11-19T09:47:17.483Z,18.93
2022-11-19T09:49:50.997Z,19.25
2022-11-19T09:52:21.604Z,19.32
2022-11-19T09:54:57.896Z,19.59
2022-11-19T09:57:43.645Z,19.57
2022-11-19T10:00:17.993Z,19.92
2022-11-19T10:02:45.659Z,20.24
2022-11-19T10:05:29.972Z,20.78
2022-11-19T10:08:15.873Z,20.96
2022-11-19T10:11:02.599Z,21.29
2022-11-19T10:13:46.115Z,20.71
2022-11-19T10:16:22.996Z,21.16
2022-11-19T10:19:43.485Z,20.80
2022-11-19T10:22:29.168Z,20.71
2022-11-19T10:24:59.294Z,20.72
2022-11-19T10:27:37.884Z,20.72
2022-11-19T10:30:14.680Z,20.88
2022-11-19T10:32:51.858Z,20.60
2022-11-19T10:35:31.523Z,20.90
2022-11-19T10:38:03.175Z,21.44
2022-11-19T10:41:01.225Z,21.79
2022-11-19T10:43:34.936Z,22.07
2022-11-19T10:46:04.840Z,21.64
2022-11-19T10:48:47.631Z,21.93
2022-11-19T10:51:24.448Z,22.43
2022-11-19T10:53:54.764Z,22.84
2022-11-19T10:56:39.466Z,22.72
2022-11-19T10:59:25.231Z,22.79
2022-11-19T11:02:04.205Z,22.81
2022-11-19T11:04:31.798Z,22.65
2022-11-19T11:07:02.038Z,22.34
2022-11-19T11:09:42.664Z,22.81
2022-11-19T11:12:45.989Z,22.90
2022-11-19T11:15:20.023Z,22.03
2022-11-19T11:17:49.233Z,21.74
2022-11-19T11:20:17.353Z,21.93
2022-11-19T11:22:47.304Z,22.47
2022-11-19T11:25:28.387Z,23.15
2022-11-19T11:28:11.068Z,22.72
2022-11-19T11:30:51.533Z,22.95
2022-11-19T11:33:24.814Z,23.53
2022-11-19T11:36:03.324Z,23.77
2022-11-19T11:38:31.492Z,23.84
2022-11-19T11:42:01.957Z,23.63
2022-11-19T11:44:04.504Z,23.14
2022-11-19T11:46:43.933Z,22.57
2022-11-19T11:49:24.797Z,22.36
2022-11-19T11:52:21.301Z,22.20
2022-11-19T11:55:08.708Z,22.23
2022-11-19T11:57:50.838Z,22.01
2022-11-19T12:00:37.326Z,21.91
2022-11-19T12:03:10.912Z,21.61
2022-11-19T12:06:02.276Z,21.45
2022-11-19T12:08:35.475Z,21.46
2022-11-19T12:11:05.736Z,21.43
2022-11-19T12:13:50.960Z,21.66
2022-11-19T12:16:49.648Z,21.69
2022-11-19T12:19:35.754Z,21.81
2022-11-19T12:22:21.808Z,21.95
2022-11-19T12:25:15.354Z,21.68
2022-11-19T12:27:57.320Z,21.50
2022-11-19T12:30:32.568Z,21.31
2022-11-19T12:33:17.011Z,21.37
2022-11-19T12:36:25.666Z,21.52
2022-11-19T12:39:02.175Z,21.63
2022-11-19T12:42:02.897Z,21.90
2022-11-19T12:44:38.951Z,22.02
2022-11-19T12:47:44.946Z,21.66
2022-11-19T12:50:27.669Z,21.57
2022-11-19T12:53:08.853Z,21.18
2022-11-19T12:55:56.641Z,21.06
2022-11-19T12:58:47.880Z,20.81
2022-11-19T13:01:27.059Z,20.87
2022-11-19T13:04:11.913Z,20.90
2022-11-19T13:06:49.542Z,20.85
2022-11-19T13:09:39.040Z,20.78
2022-11-19T13:12:09.992Z,20.74
2022-11-19T13:14:41.281Z,20.71
2022-11-19T13:17:29.239Z,20.69
2022-11-19T13:20:05.188Z,20.67
2022-11-19T13:22:36.906Z,-144.19
2022-11-19T13:25:26.928Z,-144.19
2022-11-19T13:27:56.929Z,-144.19
2022-11-19T13:30:29.784Z,-144.19
2022-11-19T13:33:03.155Z,-144.19
2022-11-19T13:36:05.200Z,-144.19
2022-11-19T13:38:56.202Z,-144.19
2022-11-19T13:41:32.918Z,-144.19
2022-11-19T13:44:19.378Z,-144.19
2022-11-19T13:46:58.951Z,-144.19
2022-11-19T13:49:33.202Z,-144.19
2022-11-19T13:52:07.036Z,-144.19
2022-11-19T13:54:39.682Z,-144.19
2022-11-19T13:57:09.819Z,-144.19
2022-11-19T13:59:46.389Z,-144.19
2022-11-19T14:02:22.838Z,-144.19
2022-11-19T14:05:01.914Z,-144.19
2022-11-19T14:07:43.976Z,-144.19
2022-11-19T14:10:34.717Z,-144.19
2022-11-19T14:13:20.791Z,-144.19
2022-11-19T14:16:21.674Z,-144.19
2022-11-19T14:19:13.833Z,-144.19
2022-11-19T14:22:02.117Z,-144.19
2022-11-19T14:24:47.945Z,-144.19
2022-11-19T14:27:23.191Z,-144.19
2022-11-19T14:29:50.543Z,-144.19
2022-11-19T14:32:19.608Z,-144.19
2022-11-19T14:35:09.628Z,-144.19
2022-11-19T14:37:59.307Z,-144.19
2022-11-19T14:40:32.741Z,-144.19
2022-11-19T14:43:21.346Z,-144.19
2022-11-19T14:46:03.913Z,-144.19
2022-11-19T14:48:48.161Z,-144.19
2022-11-19T14:51:19.392Z,-144.19
2022-11-19T14:54:03.816Z,-144.19
2022-11-19T14:56:34.497Z,-144.19
2022-11-19T14:59:12.300Z,-144.19
2022-11-19T15:01:58.699Z,-144.19
2022-11-19T15:04:33.879Z,-144.19
2022-11-19T15:07:03.312Z,-144.19
2022-11-19T15:09:53.711Z,-144.19
2022-11-19T15:12:22.475Z,-144.19
2022-11-19T15:15:05.321Z,-144.19
2022-11-19T15:17:35.604Z,-144.19
2022-11-19T15:20:06.118Z,-144.19
2022-11-19T15:22:44.405Z,-144.19
2022-11-19T15:25:30.367Z,-144.19
2022-11-19T15:28:06.046Z,-144.19
2022-11-19T15:30:51.799Z,-144.19
2022-11-19T15:33:56.717Z,-144.19
2022-11-19T15:36:56.844Z,-144.19
2022-11-19T15:39:44.939Z,-144.19
2022-11-19T15:42:17.255Z,-144.19
2022-11-19T15:44:57.746Z,-144.19
2022-11-19T15:47:58.682Z,-144.19
2022-11-19T15:50:28.607Z,-144.19
2022-11-19T15:53:14.658Z,-144.19
2022-11-19T15:56:08.441Z,-144.19
2022-11-19T15:58:46.648Z,-144.19
2022-11-19T16:01:18.180Z,-144.19
2022-11-19T16:03:45.945Z,-144.19
2022-11-19T16:06:21.249Z,-144.19
2022-11-19T16:08:54.000Z,-144.19
2022-11-19T16:11:42.843Z,-144.19
2022-11-19T16:14:48.507Z,-144.19
2022-11-19T16:17:43.020Z,-144.19
2022-11-19T16:20:11.198Z,-144.19
2022-11-19T16:23:05.379Z,-144.19
2022-11-19T16:25:44.622Z,-144.19
2022-11-19T16:28:13.849Z,-144.19
2022-11-19T16:30:48.613Z,-144.19
2022-11-19T16:33:27.710Z,-144.19
2022-11-19T16:36:19.731Z,-144.19
2022-11-19T16:38:53.030Z,-144.19
2022-11-19T16:41:41.504Z,-144.19
2022-11-19T16:44:19.153Z,-144.19
2022-11-19T16:46:47.239Z,-144.19
2022-11-19T16:49:32.370Z,-144.19
2022-11-19T16:52:00.283Z,-144.19
2022-11-19T16:54:43.223Z,-144.19
2022-11-19T16:57:12.433Z,-144.19
2022-11-19T16:59:40.342Z,-144.19
2022-11-19T17:02:15.618Z,-144.19
2022-11-19T17:04:51.793Z,-144.19
2022-11-19T17:07:28.211Z,-144.19
2022-11-19T17:10:12.739Z,-144.19
2022-11-19T17:13:29.097Z,-144.19
2022-11-19T17:16:16.037Z,-144.19
2022-11-19T17:18:44.606Z,-144.19
2022-11-19T17:21:26.583Z,-144.19
2022-11-19T17:23:56.425Z,-144.19
2022-11-19T17:26:30.227Z,-144.19
2022-11-19T17:29:19.596Z,-144.19
2022-11-19T17:31:48.685Z,-144.19
2022-11-19T17:34:34.219Z,-144.19
2022-11-19T17:37:04.463Z,-144.19
2022-11-19T17:39:32.129Z,-144.19
2022-11-19T17:42:18.473Z,-144.19
2022-11-19T17:44:47.746Z,-144.19
2022-11-19T17:47:22.468Z,-144.19
2022-11-19T17:49:51.144Z,-144.19
2022-11-19T17:52:26.783Z,-144.19
2022-11-19T17:54:58.146Z,-144.19
2022-11-19T17:57:25.711Z,-144.19
2022-11-19T17:59:55.412Z,-144.19
2022-11-19T18:02:27.428Z,-144.19
2022-11-19T18:04:54.884Z,-144.19
2022-11-19T18:07:22.434Z,-144.19
2022-11-19T18:09:49.988Z,-144.19
2022-11-19T18:12:20.740Z,-144.19
2022-11-19T18:14:49.648Z,-144.19
2022-11-19T18:17:22.562Z,-144.19
2022-11-19T18:19:49.935Z,-144.19
2022-11-19T18:22:20.360Z,-144.19
2022-11-19T18:24:49.398Z,-144.19
2022-11-19T18:27:19.332Z,-144.19
2022-11-19T18:29:46.945Z,-144.19
2022-11-19T18:32:17.286Z,-144.19
2022-11-19T18:34:46.329Z,-144.19
2022-11-19T18:37:13.769Z,-144.19
2022-11-19T18:39:41.163Z,-144.19
2022-11-19T18:42:12.139Z,-144.19
2022-11-19T18:44:41.918Z,-144.19
2022-11-19T18:47:12.040Z,-144.19
2022-11-19T18:49:39.928Z,-144.19
2022-11-19T18:52:11.397Z,-144.19
2022-11-19T18:54:38.873Z,-144.19
2022-11-19T18:57:06.328Z,-144.19
2022-11-19T18:59:33.976Z,-144.19
2022-11-19T19:02:01.765Z,-144.19
2022-11-19T19:04:29.610Z,-144.19
2022-11-19T19:06:59.433Z,-144.19
2022-11-19T19:09:27.297Z,-144.19
2022-11-19T19:12:13.984Z,-144.19
2022-11-19T19:14:45.807Z,-144.19
2022-11-19T19:17:15.144Z,-144.19
2022-11-19T19:19:42.579Z,-144.19
2022-11-19T19:22:09.976Z,-144.19
2022-11-19T19:24:38.391Z,-144.19
2022-11-19T19:27:05.792Z,-144.19
2022-11-19T19:29:33.434Z,-144.19
2022-11-19T19:32:01.171Z,-144.19
2022-11-19T19:34:31.300Z,-144.19
2022-11-19T19:36:58.784Z,-144.19
2022-11-19T19:39:26.611Z,-144.19
2022-11-19T19:41:54.680Z,-144.19
2022-11-19T19:44:22.590Z,-144.19
2022-11-19T19:46:50.172Z,-144.19
2022-11-19T19:49:17.671Z,-144.19
2022-11-19T19:51:45.159Z,-144.19
2022-11-19T19:54:12.737Z,-144.19
2022-11-19T19:56:40.885Z,-144.19
2022-11-19T19:59:09.834Z,-144.19
2022-11-19T20:01:37.808Z,-144.19
2022-11-19T20:04:10.458Z,-144.19
2022-11-19T20:06:42.037Z,-144.19
2022-11-19T20:09:09.750Z,-144.19
2022-11-19T20:11:38.180Z,-144.19
2022-11-19T20:14:07.280Z,-144.19
2022-11-19T20:16:35.350Z,-144.19
2022-11-19T20:19:07.465Z,-144.19
2022-11-19T20:21:36.651Z,-144.19
2022-11-19T20:24:11.477Z,-144.19
2022-11-19T20:26:40.446Z,-144.19
2022-11-19T20:29:09.201Z,-144.19
2022-11-19T20:31:36.807Z,-144.19
2022-11-19T20:34:06.070Z,-144.19
2022-11-19T20:36:35.473Z,-144.19
2022-11-19T20:39:04.035Z,-144.19
2022-11-19T20:42:10.032Z,-144.19
2022-11-19T20:44:37.510Z,-144.19
2022-11-19T20:47:05.234Z,-144.19
2022-11-19T20:49:40.291Z,-144.19
2022-11-19T20:52:08.574Z,-144.19
2022-11-19T20:54:36.339Z,-144.19
2022-11-19T20:57:03.872Z,-144.19
2022-11-19T20:59:31.582Z,-144.19
2022-11-19T21:01:59.195Z,-144.19
2022-11-19T21:04:28.860Z,-144.19
2022-11-19T21:06:56.393Z,-144.19
2022-11-19T21:09:24.715Z,-144.19
2022-11-19T21:11:52.815Z,-144.19
2022-11-19T21:14:20.194Z,-144.19
2022-11-19T21:16:47.772Z,-144.19
2022-11-19T21:19:16.025Z,-144.19
2022-11-19T21:21:45.151Z,-144.19
2022-11-19T21:24:12.789Z,-144.19
2022-11-19T21:26:40.579Z,-144.19
2022-11-19T21:29:08.086Z,-144.19
2022-11-19T21:31:41.765Z,-144.19
2022-11-19T21:34:12.112Z,-144.19
2022-11-19T21:36:41.088Z,-144.19
2022-11-19T21:39:09.834Z,-144.19
2022-11-19T21:41:37.539Z,-144.19
2022-11-19T21:44:05.638Z,-144.19
2022-11-19T21:46:33.994Z,-144.19
2022-11-19T21:49:01.798Z,-144.19
2022-11-19T21:51:29.294Z,-144.19
2022-11-19T21:54:00.050Z,-144.19
2022-11-19T21:56:33.882Z,-144.19
2022-11-19T21:59:04.580Z,-144.19
2022-11-19T22:01:32.016Z,-144.19
2022-11-19T22:03:59.660Z,-144.19
2022-11-19T22:06:27.217Z,-144.19
2022-11-19T22:08:54.648Z,-144.19
2022-11-19T22:11:31.714Z,-144.19
2022-11-19T22:14:08.237Z,-144.19
2022-11-19T22:16:38.347Z,-144.19
2022-11-19T22:19:06.622Z,-144.19
2022-11-19T22:21:38.355Z,-144.19
2022-11-19T22:24:06.860Z,-144.19
2022-11-19T22:26:34.168Z,-144.19
2022-11-19T22:29:01.605Z,-144.19
2022-11-19T22:31:28.886Z,-144.19
2022-11-19T22:33:56.694Z,-144.19
2022-11-19T22:36:24.581Z,-144.19
2022-11-19T22:38:52.851Z,-144.19
2022-11-19T22:41:21.848Z,-144.19
2022-11-19T22:43:49.967Z,-144.19
2022-11-19T22:46:18.570Z,-144.19
2022-11-19T22:48:45.847Z,-144.19
2022-11-19T22:51:20.373Z,-144.19
2022-11-19T22:53:49.299Z,-144.19
2022-11-19T22:56:20.182Z,-144.19
2022-11-19T22:58:48.232Z,-144.19
2022-11-19T23:01:20.089Z,-144.19
2022-11-19T23:03:47.996Z,-144.19
2022-11-19T23:06:15.899Z,-144.19
2022-11-19T23:08:43.734Z,-144.19
2022-11-19T23:11:12.416Z,-144.19
2022-11-19T23:13:41.748Z,-144.19
2022-11-19T23:16:20.466Z,-144.19
2022-11-19T23:18:53.277Z,-144.19
2022-11-19T23:21:27.465Z,-144.19
2022-11-19T23:23:55.494Z,-144.19
2022-11-19T23:26:25.395Z,-144.19
2022-11-19T23:28:53.874Z,-144.19
2022-11-19T23:31:24.011Z,-144.19
2022-11-19T23:33:57.462Z,-144.19
2022-11-19T23:36:31.337Z,-144.19
2022-11-19T23:39:00.142Z,-144.19
2022-11-19T23:41:31.399Z,-144.19
2022-11-19T23:43:58.815Z,-144.19
2022-11-19T23:46:31.444Z,-144.19
2022-11-19T23:49:00.289Z,-144.19
2022-11-19T23:51:33.281Z,-144.19
2022-11-19T23:54:00.924Z,-144.19
2022-11-19T23:56:30.359Z,-144.19
2022-11-19T23:58:58.160Z,-144.19
